Portada
METAR-TAF:

METAR-TAF

Aeroports :

Kerman, Iran

latitud: 30-15N, longitud: 056-58E, altitud: 1748 m

Observació

L'informe es va fer fa 50 minuts, a les 12:00 UTC
Vent 12 kt del Nord/Nord-Oest
Temperatura 20°C
Humitat 18%
Pressió 1024 hPa
Visibilitat 10 km o més
sense núvols per sota de 1500 mi sense presència de cumulonimbus.

METAR: OIKK 241200Z 33012KT CAVOK 20/M05 Q1024 A3025

Hora: 16:20 (12:50 UTC)

Pronòstic

L'informe es va fer fa 1 hora i 50 minuts, a les 11:00 UTC
Pronòstic vàlid del 24 a les 12 UTC al 25 a les 18 UTC
Vent 8 kt del Sud/Sud-Est
Visibilitat 10 km o més
sense núvols per sota de 1500 mi sense presència de cumulonimbus.
Temporalment
l' 24 a les 12 UTC al 24 a les 15 UTC
Vent 18 kt del Nord/Nord-Oest

TAF: OIKK 241100Z 2412/2518 15008KT CAVOK TEMPO 2412/2415 33018KT

Observacions i pronòstics meteorològics de més de 4000 aeroports (METAR i TAF).

Les estacions disponibles són els punts grocs i vermells al mapa.

Posi el ratolí al punt desitjat per veure el nom de l'estació.

Feu clic per veure les observacions i els pronòstics meteorològics.

Per canviar el mapa: feu clic els botons verds amb una creu de color negre per apropar; al botó verd amb un guió per allunyar la imatge; o en les fletxes verdes per a mapes adjacents.


METAR-TAF: